Time;durP1;ratioP1;P1;durP2;ratioP2;P2;SDS_P1;SDS_P2;PMS_P1;PMS_P2;Temp;Humidity;BMP_temperature;BMP_pressure;BME280_temperature;BME280_humidity;BME280_pressure;Samples;Min_cycle;Max_cycle;Signal;HPM_P1;HPM_P2
2022/11/24 00:00:39;;;;;;;32.25;19.13;;;;;;;;;;5018296;28;20053;-77
2022/11/24 00:03:25;;;;;;;17.70;9.98;;;;;;;;;;5020175;28;20046;-76
2022/11/24 00:06:13;;;;;;;16.85;10.73;;;;;;;;;;5018757;28;20042;-76
2022/11/24 00:09:00;;;;;;;15.82;10.40;;;;;;;;;;5017903;28;20054;-77
2022/11/24 00:11:44;;;;;;;17.38;10.75;;;;;;;;;;5018058;28;20454;-76
2022/11/24 00:14:30;;;;;;;13.98;9.98;;;;;;;;;;5017638;28;20518;-76
2022/11/24 00:17:16;;;;;;;17.90;10.95;;;;;;;;;;5018618;28;20045;-77
2022/11/24 00:20:03;;;;;;;16.45;9.85;;;;;;;;;;5017305;28;20045;-76
2022/11/24 00:22:52;;;;;;;16.80;10.02;;;;;;;;;;5016024;28;20045;-76
2022/11/24 00:25:38;;;;;;;14.90;9.48;;;;;;;;;;5015206;28;20479;-77
2022/11/24 00:28:24;;;;;;;14.18;9.70;;;;;;;;;;5006950;28;20395;-77
2022/11/24 00:31:28;;;;;;;18.70;10.32;;;;;;;;;;4990671;28;20049;-76
2022/11/24 00:34:14;;;;;;;14.65;9.43;;;;;;;;;;5023051;28;20054;-77
2022/11/24 00:37:02;;;;;;;11.65;8.40;;;;;;;;;;5017917;28;20038;-76
2022/11/24 00:39:51;;;;;;;12.55;8.65;;;;;;;;;;5016665;28;20046;-76
2022/11/24 00:42:36;;;;;;;11.35;7.75;;;;;;;;;;5009400;28;20041;-76
2022/11/24 00:45:25;;;;;;;10.43;7.18;;;;;;;;;;5016919;28;20045;-76
2022/11/24 00:48:10;;;;;;;11.75;7.72;;;;;;;;;;5017137;28;20054;-76
2022/11/24 00:51:08;;;;;;;10.05;7.68;;;;;;;;;;5009303;28;20094;-77
2022/11/24 00:53:55;;;;;;;10.13;7.47;;;;;;;;;;5016611;28;20045;-76
2022/11/24 00:56:42;;;;;;;11.93;8.02;;;;;;;;;;5016889;28;20487;-77
2022/11/24 00:59:31;;;;;;;10.35;7.18;;;;;;;;;;5022066;28;20046;-77
2022/11/24 01:02:16;;;;;;;9.18;7.53;;;;;;;;;;5017339;28;20046;-76
2022/11/24 01:05:02;;;;;;;13.70;8.27;;;;;;;;;;5019967;28;20050;-76
2022/11/24 01:07:47;;;;;;;56.38;31.42;;;;;;;;;;5016215;28;20038;-76
2022/11/24 01:10:33;;;;;;;12.50;8.63;;;;;;;;;;5015462;28;20046;-77
2022/11/24 01:13:18;;;;;;;22.10;14.27;;;;;;;;;;5018268;28;20041;-75
2022/11/24 01:16:04;;;;;;;14.27;7.75;;;;;;;;;;5025922;28;20045;-76
2022/11/24 01:18:50;;;;;;;14.00;8.15;;;;;;;;;;5024413;28;20038;-75
2022/11/24 01:21:35;;;;;;;13.30;7.93;;;;;;;;;;5016292;28;20042;-74
2022/11/24 01:24:21;;;;;;;12.20;7.97;;;;;;;;;;5016622;28;20479;-74
2022/11/24 01:27:06;;;;;;;11.55;7.22;;;;;;;;;;5016388;28;20396;-75
2022/11/24 01:29:52;;;;;;;11.43;7.55;;;;;;;;;;5016465;28;20045;-75
2022/11/24 01:32:37;;;;;;;7.63;5.05;;;;;;;;;;5016355;28;20043;-76
2022/11/24 01:35:23;;;;;;;9.85;5.63;;;;;;;;;;5016054;28;20037;-75
2022/11/24 01:38:08;;;;;;;10.13;5.57;;;;;;;;;;5022797;28;20046;-75
2022/11/24 01:41:26;;;;;;;9.57;6.40;;;;;;;;;;5017067;28;20050;-75
2022/11/24 01:44:29;;;;;;;8.90;6.05;;;;;;;;;;5022642;28;20049;-75
2022/11/24 01:47:41;;;;;;;9.40;6.03;;;;;;;;;;5016469;28;20395;-75
2022/11/24 01:50:26;;;;;;;6.88;4.80;;;;;;;;;;5022454;28;20403;-75
2022/11/24 01:53:13;;;;;;;6.82;4.90;;;;;;;;;;5022630;28;20038;-76
2022/11/24 01:55:58;;;;;;;7.72;5.47;;;;;;;;;;5016431;28;20053;-75
2022/11/24 01:58:47;;;;;;;7.00;5.20;;;;;;;;;;5022324;28;20072;-74
2022/11/24 02:01:33;;;;;;;8.43;4.93;;;;;;;;;;5022603;28;20041;-75
2022/11/24 02:04:24;;;;;;;8.80;4.93;;;;;;;;;;5015266;28;20488;-76
2022/11/24 02:07:11;;;;;;;6.53;4.90;;;;;;;;;;5014720;28;20483;-76
2022/11/24 02:10:02;;;;;;;7.90;5.18;;;;;;;;;;5022477;28;20038;-76
2022/11/24 02:12:52;;;;;;;5.40;4.47;;;;;;;;;;5015596;28;20407;-76
2022/11/24 02:15:37;;;;;;;6.18;4.63;;;;;;;;;;5015808;28;20046;-75
2022/11/24 02:18:23;;;;;;;6.05;4.43;;;;;;;;;;5021811;28;20049;-75
2022/11/24 02:21:10;;;;;;;6.60;4.80;;;;;;;;;;5015499;28;20042;-75
2022/11/24 02:24:06;;;;;;;5.75;3.95;;;;;;;;;;5015465;28;20050;-76
2022/11/24 02:26:51;;;;;;;7.40;5.00;;;;;;;;;;5015016;28;20050;-76
2022/11/24 02:29:37;;;;;;;6.70;4.70;;;;;;;;;;5015643;28;20045;-75
2022/11/24 02:32:23;;;;;;;4.93;4.03;;;;;;;;;;5014275;28;20049;-76
2022/11/24 02:35:10;;;;;;;7.57;4.32;;;;;;;;;;5015202;28;20134;-76
2022/11/24 02:37:54;;;;;;;4.85;3.83;;;;;;;;;;5015223;28;20041;-75
2022/11/24 02:40:43;;;;;;;6.40;4.18;;;;;;;;;;5014099;28;20050;-77
2022/11/24 02:43:34;;;;;;;5.38;4.00;;;;;;;;;;5014960;28;20476;-75
2022/11/24 02:46:20;;;;;;;5.05;3.92;;;;;;;;;;5014800;28;20396;-75
2022/11/24 02:49:05;;;;;;;7.63;4.30;;;;;;;;;;5015450;28;20046;-76
2022/11/24 02:51:50;;;;;;;6.07;4.20;;;;;;;;;;5015858;28;20392;-75
2022/11/24 02:54:36;;;;;;;6.03;4.20;;;;;;;;;;5014187;28;20042;-75
2022/11/24 02:57:22;;;;;;;6.13;4.38;;;;;;;;;;5015037;28;20062;-76
2022/11/24 03:00:08;;;;;;;7.63;4.88;;;;;;;;;;5014317;28;20058;-76
2022/11/24 03:02:54;;;;;;;9.32;5.10;;;;;;;;;;5014484;28;20050;-76
2022/11/24 03:05:39;;;;;;;8.50;5.57;;;;;;;;;;5014439;28;20045;-76
2022/11/24 03:08:25;;;;;;;7.68;4.90;;;;;;;;;;5013941;28;20403;-76
2022/11/24 03:11:14;;;;;;;9.07;5.57;;;;;;;;;;5014503;28;20050;-77
2022/11/24 03:13:59;;;;;;;7.32;5.45;;;;;;;;;;5014003;28;20391;-77
2022/11/24 03:16:45;;;;;;;8.48;5.63;;;;;;;;;;5020637;28;20053;-77
2022/11/24 03:19:30;;;;;;;9.13;5.22;;;;;;;;;;5014079;28;20046;-77
2022/11/24 03:22:16;;;;;;;7.82;5.57;;;;;;;;;;5013313;28;20046;-77
2022/11/24 03:25:02;;;;;;;8.20;5.25;;;;;;;;;;5020554;28;20050;-76
2022/11/24 03:27:47;;;;;;;8.50;5.30;;;;;;;;;;5013901;28;20483;-77
2022/11/24 03:30:33;;;;;;;6.68;5.40;;;;;;;;;;5013323;28;20042;-77
2022/11/24 03:33:18;;;;;;;6.85;4.93;;;;;;;;;;5013394;28;20042;-76
2022/11/24 03:36:05;;;;;;;8.75;4.75;;;;;;;;;;5019840;28;20050;-77
2022/11/24 03:38:51;;;;;;;6.97;5.10;;;;;;;;;;5013863;28;20046;-76
2022/11/24 03:41:36;;;;;;;6.93;5.10;;;;;;;;;;5014022;28;20041;-76
2022/11/24 03:44:22;;;;;;;10.52;4.07;;;;;;;;;;5013272;28;20507;-76
2022/11/24 03:47:09;;;;;;;5.97;4.32;;;;;;;;;;5013849;28;20041;-76
2022/11/24 03:49:55;;;;;;;7.88;5.53;;;;;;;;;;5012647;28;20053;-76
2022/11/24 03:52:40;;;;;;;11.95;7.60;;;;;;;;;;5018262;28;20042;-76
2022/11/24 03:55:26;;;;;;;12.50;9.10;;;;;;;;;;5011978;28;20054;-76
2022/11/24 03:58:12;;;;;;;9.82;7.07;;;;;;;;;;5011166;28;20049;-76
2022/11/24 04:00:57;;;;;;;10.65;7.00;;;;;;;;;;5018044;28;20046;-76
2022/11/24 04:03:43;;;;;;;9.57;6.97;;;;;;;;;;5018319;28;20050;-76
2022/11/24 04:06:28;;;;;;;8.95;6.13;;;;;;;;;;5013400;28;20046;-76
2022/11/24 04:09:14;;;;;;;9.27;5.72;;;;;;;;;;5013728;28;20054;-76
2022/11/24 04:15:04;;;;;;;7.72;4.88;;;;;;;;;;5019975;28;20037;-75
2022/11/24 04:17:49;;;;;;;9.35;5.68;;;;;;;;;;5020495;28;20049;-76
2022/11/24 04:20:34;;;;;;;10.25;6.75;;;;;;;;;;5019652;28;20053;-76
2022/11/24 04:23:20;;;;;;;10.93;6.85;;;;;;;;;;5013715;28;20046;-75
2022/11/24 04:26:05;;;;;;;8.43;6.05;;;;;;;;;;5012983;28;20049;-75
2022/11/24 04:28:51;;;;;;;19.05;11.45;;;;;;;;;;5013666;28;20046;-76
2022/11/24 04:31:36;;;;;;;17.48;10.45;;;;;;;;;;5016383;28;20042;-76
2022/11/24 04:34:22;;;;;;;16.98;10.80;;;;;;;;;;5020342;28;20046;-77
2022/11/24 04:37:08;;;;;;;18.55;9.45;;;;;;;;;;5013714;28;20050;-77
2022/11/24 04:39:54;;;;;;;11.43;8.48;;;;;;;;;;5012820;28;20046;-77
2022/11/24 04:42:39;;;;;;;12.40;7.57;;;;;;;;;;5013227;28;20046;-76
2022/11/24 04:45:25;;;;;;;13.60;8.18;;;;;;;;;;5021504;28;20046;-76
2022/11/24 04:48:10;;;;;;;11.60;7.35;;;;;;;;;;5016335;28;20497;-76
2022/11/24 04:50:56;;;;;;;13.25;7.72;;;;;;;;;;5023779;28;20419;-75
2022/11/24 04:53:41;;;;;;;11.43;8.43;;;;;;;;;;5016847;28;20050;-76
2022/11/24 04:56:27;;;;;;;10.55;8.35;;;;;;;;;;5016656;28;20058;-76
2022/11/24 04:59:13;;;;;;;13.65;9.13;;;;;;;;;;5017082;28;20054;-75
2022/11/24 05:01:59;;;;;;;16.70;10.63;;;;;;;;;;5015948;28;20046;-76
2022/11/24 05:04:45;;;;;;;17.20;10.73;;;;;;;;;;5023203;28;20050;-75
2022/11/24 05:07:30;;;;;;;19.17;11.38;;;;;;;;;;5016606;28;20042;-76
2022/11/24 05:10:34;;;;;;;19.98;11.43;;;;;;;;;;5016326;28;20491;-76
2022/11/24 05:13:20;;;;;;;21.33;13.48;;;;;;;;;;5016557;28;20058;-75
2022/11/24 05:16:05;;;;;;;31.42;19.23;;;;;;;;;;5015795;28;20045;-75
2022/11/24 05:18:50;;;;;;;38.17;21.15;;;;;;;;;;5016743;28;20054;-76
2022/11/24 05:21:36;;;;;;;25.85;15.55;;;;;;;;;;5016873;28;20046;-75
2022/11/24 05:24:22;;;;;;;26.90;15.57;;;;;;;;;;5015221;28;20050;-75
2022/11/24 05:27:07;;;;;;;28.95;16.90;;;;;;;;;;5016364;28;20049;-75
2022/11/24 05:29:53;;;;;;;29.73;17.13;;;;;;;;;;5015867;28;20395;-75
2022/11/24 05:32:39;;;;;;;27.35;17.42;;;;;;;;;;5016083;28;20050;-76
2022/11/24 05:35:24;;;;;;;22.20;13.88;;;;;;;;;;5016183;28;20038;-75
2022/11/24 05:38:10;;;;;;;35.08;18.17;;;;;;;;;;5015461;28;20042;-76
2022/11/24 05:41:00;;;;;;;53.63;23.25;;;;;;;;;;5015872;28;20042;-76
2022/11/24 05:43:46;;;;;;;37.08;19.13;;;;;;;;;;5015469;28;20042;-76
2022/11/24 05:46:31;;;;;;;26.42;15.68;;;;;;;;;;5015837;28;20045;-73
2022/11/24 05:49:17;;;;;;;25.77;14.80;;;;;;;;;;5016000;28;20042;-74
2022/11/24 05:52:02;;;;;;;19.35;12.73;;;;;;;;;;5015164;28;20046;-74
2022/11/24 05:54:48;;;;;;;20.30;12.80;;;;;;;;;;5016204;28;20045;-76
2022/11/24 05:57:34;;;;;;;21.15;13.45;;;;;;;;;;5015402;28;20050;-76
2022/11/24 06:00:19;;;;;;;25.38;13.63;;;;;;;;;;5015567;28;20042;-76
2022/11/24 06:03:05;;;;;;;31.00;16.38;;;;;;;;;;5015681;28;20049;-76
2022/11/24 06:05:50;;;;;;;34.05;18.38;;;;;;;;;;5021314;28;20049;-76
2022/11/24 06:08:36;;;;;;;34.63;19.05;;;;;;;;;;5022174;28;20042;-76
2022/11/24 06:11:21;;;;;;;35.28;19.30;;;;;;;;;;5015589;28;20491;-77
2022/11/24 06:14:09;;;;;;;29.10;17.35;;;;;;;;;;5014954;28;20042;-76
2022/11/24 06:16:54;;;;;;;30.90;17.63;;;;;;;;;;5016106;28;20046;-77
2022/11/24 06:19:39;;;;;;;30.20;17.00;;;;;;;;;;5023417;28;20054;-75
2022/11/24 06:22:25;;;;;;;34.38;19.85;;;;;;;;;;5014711;28;20053;-77
2022/11/24 06:25:11;;;;;;;35.88;20.77;;;;;;;;;;5013308;28;20430;-76
2022/11/24 06:27:56;;;;;;;31.65;18.95;;;;;;;;;;5012417;28;20054;-76
2022/11/24 06:30:42;;;;;;;28.75;18.30;;;;;;;;;;5012787;28;20038;-75
2022/11/24 06:33:32;;;;;;;24.42;15.45;;;;;;;;;;5012937;28;20042;-77
2022/11/24 06:36:18;;;;;;;25.73;15.93;;;;;;;;;;5012877;28;20049;-76
2022/11/24 06:39:05;;;;;;;28.50;14.23;;;;;;;;;;5014357;28;20045;-76
2022/11/24 06:41:51;;;;;;;29.48;15.30;;;;;;;;;;5020943;28;20046;-77
2022/11/24 06:44:37;;;;;;;51.65;23.90;;;;;;;;;;5015343;28;20046;-76
2022/11/24 06:47:22;;;;;;;42.67;22.00;;;;;;;;;;5021481;28;20046;-77
2022/11/24 06:50:09;;;;;;;37.00;20.60;;;;;;;;;;5014926;28;20499;-75
2022/11/24 06:52:54;;;;;;;31.50;18.23;;;;;;;;;;5014951;28;20046;-76
2022/11/24 06:55:41;;;;;;;18.55;12.23;;;;;;;;;;5014359;28;20042;-76
2022/11/24 06:58:27;;;;;;;32.45;16.20;;;;;;;;;;5014546;28;20467;-75
2022/11/24 07:01:21;;;;;;;30.02;18.23;;;;;;;;;;5020766;28;20488;-76
2022/11/24 07:04:06;;;;;;;32.10;19.43;;;;;;;;;;5020500;28;20487;-77
2022/11/24 07:06:52;;;;;;;50.63;24.17;;;;;;;;;;5020769;28;20042;-77
2022/11/24 07:09:38;;;;;;;49.05;28.60;;;;;;;;;;5013634;28;20046;-74
2022/11/24 07:12:23;;;;;;;52.22;30.38;;;;;;;;;;5021273;28;20472;-77
2022/11/24 07:15:09;;;;;;;54.15;29.52;;;;;;;;;;5014214;28;20042;-76
2022/11/24 07:17:55;;;;;;;32.25;19.48;;;;;;;;;;5014413;28;20049;-75
2022/11/24 07:20:40;;;;;;;36.55;21.95;;;;;;;;;;5017515;28;20041;-74
2022/11/24 07:23:26;;;;;;;32.85;19.90;;;;;;;;;;5016923;28;20054;-75
2022/11/24 07:26:11;;;;;;;30.42;18.05;;;;;;;;;;5017184;28;20041;-75
2022/11/24 07:28:57;;;;;;;26.90;16.38;;;;;;;;;;5017520;28;20429;-75
2022/11/24 07:31:44;;;;;;;21.42;13.90;;;;;;;;;;5018572;28;20046;-76
2022/11/24 07:34:29;;;;;;;22.92;13.98;;;;;;;;;;5016759;28;20046;-75
2022/11/24 07:37:14;;;;;;;23.00;14.05;;;;;;;;;;5017007;28;20045;-76
2022/11/24 07:39:59;;;;;;;21.45;12.80;;;;;;;;;;5013688;28;20050;-76
2022/11/24 07:42:45;;;;;;;25.02;14.13;;;;;;;;;;5014307;28;20046;-76
2022/11/24 07:45:30;;;;;;;23.55;12.55;;;;;;;;;;5013373;28;20038;-77
2022/11/24 07:48:16;;;;;;;16.30;10.75;;;;;;;;;;5014176;28;20057;-75
2022/11/24 07:51:03;;;;;;;14.75;9.60;;;;;;;;;;5013864;28;20042;-76
2022/11/24 07:53:48;;;;;;;17.40;10.75;;;;;;;;;;5013367;28;20046;-77
2022/11/24 07:56:34;;;;;;;11.65;6.93;;;;;;;;;;5013808;28;20499;-77
2022/11/24 07:59:19;;;;;;;9.48;5.47;;;;;;;;;;5019850;28;20039;-76
2022/11/24 08:02:05;;;;;;;12.85;7.50;;;;;;;;;;5015811;28;20046;-78
2022/11/24 08:04:50;;;;;;;15.95;8.77;;;;;;;;;;5020956;28;20050;-77
2022/11/24 08:10:40;;;;;;;20.47;11.97;;;;;;;;;;4627376;22;2047010;-78
2022/11/24 08:13:25;;;;;;;16.33;9.77;;;;;;;;;;5091390;28;20043;-77
2022/11/24 08:16:13;;;;;;;16.75;10.18;;;;;;;;;;5091303;28;20419;-77
2022/11/24 08:18:58;;;;;;;19.38;9.68;;;;;;;;;;5090611;28;20481;-77
2022/11/24 08:21:44;;;;;;;17.20;10.65;;;;;;;;;;5091469;28;20392;-76
2022/11/24 08:24:30;;;;;;;16.70;9.98;;;;;;;;;;5097774;28;20048;-76
2022/11/24 08:27:15;;;;;;;18.88;9.68;;;;;;;;;;5097802;28;20477;-76
2022/11/24 08:30:01;;;;;;;20.45;9.18;;;;;;;;;;5090764;28;20044;-78
2022/11/24 08:32:46;;;;;;;11.43;5.97;;;;;;;;;;5090672;28;20044;-77
2022/11/24 08:35:36;;;;;;;8.57;6.40;;;;;;;;;;5097569;28;20496;-76
2022/11/24 08:38:22;;;;;;;19.17;5.80;;;;;;;;;;5090962;28;20036;-77
2022/11/24 08:41:10;;;;;;;17.27;10.77;;;;;;;;;;5090328;28;20040;-77
2022/11/24 08:43:56;;;;;;;18.35;10.65;;;;;;;;;;5091622;28;20048;-78
2022/11/24 08:46:41;;;;;;;8.18;5.43;;;;;;;;;;5090443;28;20516;-79
2022/11/24 08:49:27;;;;;;;7.65;5.32;;;;;;;;;;5090819;28;20477;-79
2022/11/24 08:52:12;;;;;;;19.25;10.90;;;;;;;;;;5098473;28;20051;-78
2022/11/24 08:54:58;;;;;;;13.68;7.20;;;;;;;;;;5091179;28;20481;-77
2022/11/24 08:57:43;;;;;;;27.33;16.83;;;;;;;;;;5090534;28;20032;-77
2022/11/24 09:00:28;;;;;;;17.33;10.63;;;;;;;;;;5090476;28;20044;-77
2022/11/24 09:03:13;;;;;;;12.75;8.07;;;;;;;;;;5109117;27;20045;-77
2022/11/24 09:05:59;;;;;;;16.88;9.43;;;;;;;;;;5101132;28;20041;-76
2022/11/24 09:08:44;;;;;;;20.08;11.80;;;;;;;;;;5097184;28;20048;-76
2022/11/24 09:11:32;;;;;;;151.68;64.65;;;;;;;;;;5095413;28;20036;-76
2022/11/24 09:14:17;;;;;;;33.42;17.02;;;;;;;;;;5096591;28;20057;-76
2022/11/24 09:17:03;;;;;;;21.35;10.40;;;;;;;;;;5096290;28;20048;-78
2022/11/24 09:19:48;;;;;;;8.63;5.82;;;;;;;;;;5072856;28;20036;-78
2022/11/24 09:22:34;;;;;;;33.20;8.63;;;;;;;;;;5075875;28;20055;-79
2022/11/24 09:25:19;;;;;;;16.60;7.72;;;;;;;;;;5076663;28;20056;-77
2022/11/24 09:28:05;;;;;;;19.88;9.07;;;;;;;;;;5076134;28;20041;-76
2022/11/24 09:30:50;;;;;;;19.23;10.35;;;;;;;;;;5075938;28;20048;-76
2022/11/24 09:33:37;;;;;;;13.00;7.20;;;;;;;;;;5076828;28;20040;-76
2022/11/24 09:36:22;;;;;;;17.77;9.45;;;;;;;;;;5082466;28;20040;-76
2022/11/24 09:39:09;;;;;;;11.95;7.07;;;;;;;;;;5082201;28;20040;-78
2022/11/24 09:42:18;;;;;;;12.20;6.80;;;;;;;;;;5075963;28;20048;-79
2022/11/24 09:45:31;;;;;;;14.45;7.15;;;;;;;;;;5081940;28;20045;-76
2022/11/24 09:48:31;;;;;;;7.15;4.53;;;;;;;;;;5075839;28;20440;-78
2022/11/24 09:51:23;;;;;;;11.88;7.72;;;;;;;;;;5075436;28;20045;-76
2022/11/24 09:54:16;;;;;;;9.15;5.80;;;;;;;;;;5076391;28;20037;-77
2022/11/24 09:57:04;;;;;;;19.15;8.05;;;;;;;;;;5075967;28;20063;-79
2022/11/24 09:59:49;;;;;;;8.18;4.38;;;;;;;;;;5075450;28;20052;-77
2022/11/24 10:02:35;;;;;;;9.10;6.38;;;;;;;;;;5075914;28;20068;-78
2022/11/24 10:05:27;;;;;;;13.27;6.88;;;;;;;;;;5075649;28;20400;-78
2022/11/24 10:08:39;;;;;;;15.88;9.23;;;;;;;;;;5084367;28;20044;-77
2022/11/24 10:11:35;;;;;;;9.38;5.80;;;;;;;;;;5075173;28;20048;-78
2022/11/24 10:14:52;;;;;;;19.15;10.85;;;;;;;;;;5075672;28;20067;-76
2022/11/24 10:17:57;;;;;;;19.95;10.25;;;;;;;;;;5089640;28;20044;-77
2022/11/24 10:20:58;;;;;;;14.68;9.77;;;;;;;;;;5078681;28;20056;-76
2022/11/24 10:23:42;;;;;;;16.85;9.10;;;;;;;;;;5075539;28;20397;-78
2022/11/24 10:26:39;;;;;;;13.77;8.48;;;;;;;;;;5074905;28;20032;-77
2022/11/24 10:29:40;;;;;;;28.73;16.20;;;;;;;;;;5075589;28;20048;-78
2022/11/24 10:32:33;;;;;;;19.63;12.13;;;;;;;;;;5081844;28;20040;-77
2022/11/24 10:35:35;;;;;;;22.27;13.25;;;;;;;;;;5074784;28;20408;-80
2022/11/24 10:38:20;;;;;;;14.38;8.38;;;;;;;;;;5075074;28;20040;-84
2022/11/24 10:41:19;;;;;;;16.27;8.57;;;;;;;;;;5074386;28;20048;-80
2022/11/24 10:44:11;;;;;;;13.07;7.45;;;;;;;;;;5074776;28;20044;-78
2022/11/24 10:46:56;;;;;;;12.43;7.80;;;;;;;;;;5082147;28;20040;-76
2022/11/24 10:49:51;;;;;;;10.50;6.57;;;;;;;;;;5081013;28;20045;-78
2022/11/24 10:52:42;;;;;;;14.80;10.00;;;;;;;;;;5074859;28;20044;-77
2022/11/24 10:55:56;;;;;;;12.98;6.82;;;;;;;;;;5081202;28;20041;-77
2022/11/24 10:58:41;;;;;;;11.90;6.43;;;;;;;;;;5074864;28;20044;-76
2022/11/24 11:01:31;;;;;;;14.82;7.65;;;;;;;;;;5065808;28;20045;-77
2022/11/24 11:04:24;;;;;;;16.67;9.75;;;;;;;;;;5081808;28;20044;-77
2022/11/24 11:07:17;;;;;;;19.55;11.50;;;;;;;;;;5075385;28;20057;-76
2022/11/24 11:10:21;;;;;;;12.68;7.15;;;;;;;;;;5082665;28;20055;-77
2022/11/24 11:13:28;;;;;;;12.85;7.35;;;;;;;;;;5090338;28;20044;-78
2022/11/24 11:16:25;;;;;;;18.33;10.52;;;;;;;;;;5081478;28;20040;-77
2022/11/24 11:19:37;;;;;;;18.20;9.98;;;;;;;;;;5074430;28;20048;-76
2022/11/24 11:22:28;;;;;;;17.17;7.50;;;;;;;;;;5080889;28;20049;-76
2022/11/24 11:25:13;;;;;;;17.00;10.60;;;;;;;;;;5058694;28;20049;-77
2022/11/24 11:28:28;;;;;;;16.23;7.88;;;;;;;;;;5073773;28;20049;-77
2022/11/24 11:31:19;;;;;;;21.85;12.13;;;;;;;;;;5073160;28;20045;-77
2022/11/24 11:34:14;;;;;;;24.30;10.80;;;;;;;;;;5074030;28;20044;-77
2022/11/24 11:37:03;;;;;;;28.42;13.05;;;;;;;;;;5073630;28;20040;-78
2022/11/24 11:39:51;;;;;;;27.17;11.90;;;;;;;;;;5073601;28;20040;-77
2022/11/24 11:42:48;;;;;;;25.95;9.88;;;;;;;;;;5073418;28;20049;-78
2022/11/24 11:45:43;;;;;;;35.42;17.17;;;;;;;;;;5073096;28;20044;-76
2022/11/24 11:48:32;;;;;;;25.92;11.77;;;;;;;;;;5080358;28;20037;-79
2022/11/24 11:51:45;;;;;;;20.48;10.30;;;;;;;;;;5073618;28;20389;-78
2022/11/24 11:54:52;;;;;;;27.25;12.82;;;;;;;;;;5080273;28;20044;-77
2022/11/24 12:03:13;;;;;;;22.45;13.55;;;;;;;;;;5070871;28;20387;-79
2022/11/24 12:06:22;;;;;;;25.50;15.75;;;;;;;;;;5078271;28;20053;-78
2022/11/24 12:09:22;;;;;;;28.98;15.10;;;;;;;;;;5077940;28;20399;-79
2022/11/24 12:12:23;;;;;;;32.67;16.52;;;;;;;;;;5078942;28;20048;-79
2022/11/24 12:15:20;;;;;;;33.78;19.48;;;;;;;;;;5080453;28;20483;-77
2022/11/24 12:18:27;;;;;;;40.08;23.90;;;;;;;;;;5078703;28;20491;-78
2022/11/24 12:21:17;;;;;;;34.25;19.50;;;;;;;;;;5076111;28;20143;-80
2022/11/24 12:24:17;;;;;;;32.92;19.55;;;;;;;;;;5077256;28;20060;-78
2022/11/24 12:27:09;;;;;;;21.63;11.80;;;;;;;;;;5077301;28;20053;-78
2022/11/24 12:30:04;;;;;;;27.02;15.88;;;;;;;;;;5077675;28;20048;-78
2022/11/24 12:33:10;;;;;;;17.17;9.05;;;;;;;;;;5076373;28;20399;-78
2022/11/24 12:36:20;;;;;;;12.55;6.35;;;;;;;;;;5077133;28;20056;-79
2022/11/24 12:39:23;;;;;;;7.30;3.35;;;;;;;;;;5077236;28;20048;-77
2022/11/24 12:42:17;;;;;;;8.65;5.20;;;;;;;;;;5076901;28;20052;-79
2022/11/24 12:45:07;;;;;;;16.00;6.60;;;;;;;;;;5077177;28;20048;-78
2022/11/24 12:47:57;;;;;;;18.52;5.55;;;;;;;;;;5077233;28;20045;-78
2022/11/24 12:50:44;;;;;;;5.75;3.67;;;;;;;;;;5069808;28;20045;-78
2022/11/24 12:53:33;;;;;;;10.23;4.15;;;;;;;;;;5076763;28;20059;-78
2022/11/24 12:56:29;;;;;;;9.68;5.88;;;;;;;;;;5076207;28;20049;-78
2022/11/24 12:59:44;;;;;;;10.73;5.47;;;;;;;;;;5076528;28;20040;-78
2022/11/24 13:02:59;;;;;;;16.90;9.13;;;;;;;;;;5072051;28;20049;-79
2022/11/24 13:05:54;;;;;;;;;;;;;;;;;;5077248;28;20057;-81
2022/11/24 13:08:40;;;;;;;6.00;3.65;;;;;;;;;;5076841;28;20266;-81
2022/11/24 13:11:33;;;;;;;8.55;5.03;;;;;;;;;;5076673;28;20053;-79
2022/11/24 13:14:28;;;;;;;4.85;3.25;;;;;;;;;;5063527;28;20056;-79
2022/11/24 13:17:32;;;;;;;10.32;3.97;;;;;;;;;;5063255;28;20051;-80
2022/11/24 13:20:17;;;;;;;3.75;2.10;;;;;;;;;;5050367;28;20484;-78
2022/11/24 13:23:05;;;;;;;3.80;2.70;;;;;;;;;;5050155;28;20046;-78
2022/11/24 13:26:26;;;;;;;8.13;3.38;;;;;;;;;;5059933;28;20041;-80
2022/11/24 13:29:29;;;;;;;11.10;4.72;;;;;;;;;;5059318;28;20479;-80
2022/11/24 13:32:17;;;;;;;12.02;5.68;;;;;;;;;;5059808;28;20207;-79
2022/11/24 13:35:12;;;;;;;5.40;3.00;;;;;;;;;;5060591;28;20049;-78
2022/11/24 13:37:57;;;;;;;7.95;4.60;;;;;;;;;;5053190;28;20046;-79
2022/11/24 13:40:43;;;;;;;13.02;5.05;;;;;;;;;;5046129;28;20041;-77
2022/11/24 13:43:28;;;;;;;3.95;2.20;;;;;;;;;;5035788;28;20045;-79
2022/11/24 13:46:13;;;;;;;7.18;4.10;;;;;;;;;;5044535;28;20476;-80
2022/11/24 13:48:58;;;;;;;10.20;5.63;;;;;;;;;;5060159;28;20052;-79
2022/11/24 13:51:44;;;;;;;9.88;4.65;;;;;;;;;;5061015;28;20049;-78
2022/11/24 13:54:30;;;;;;;4.05;2.90;;;;;;;;;;5055004;28;20041;-78
2022/11/24 13:57:36;;;;;;;6.78;3.95;;;;;;;;;;5057671;28;20045;-79
2022/11/24 14:00:31;;;;;;;5.35;3.17;;;;;;;;;;5059209;28;20050;-78
2022/11/24 14:03:25;;;;;;;8.65;4.18;;;;;;;;;;5061428;28;20040;-77
2022/11/24 14:06:42;;;;;;;9.02;4.07;;;;;;;;;;5051800;28;20419;-79
2022/11/24 14:09:34;;;;;;;5.53;3.53;;;;;;;;;;5046730;28;20049;-79
2022/11/24 14:12:24;;;;;;;7.40;4.32;;;;;;;;;;5061014;28;20057;-78
2022/11/24 14:15:25;;;;;;;11.43;7.72;;;;;;;;;;5049601;28;20049;-78
2022/11/24 14:18:20;;;;;;;15.25;8.50;;;;;;;;;;5054381;28;20407;-77
2022/11/24 14:21:27;;;;;;;7.88;3.90;;;;;;;;;;5060430;28;20478;-79
2022/11/24 14:24:25;;;;;;;15.27;8.50;;;;;;;;;;5056929;28;20053;-80
2022/11/24 14:27:16;;;;;;;23.00;10.68;;;;;;;;;;5049834;28;20049;-80
2022/11/24 14:30:16;;;;;;;14.93;7.80;;;;;;;;;;5060767;28;20399;-78
2022/11/24 14:33:03;;;;;;;10.10;4.95;;;;;;;;;;5060135;28;20053;-78
2022/11/24 14:35:49;;;;;;;20.50;8.13;;;;;;;;;;5061247;28;20378;-78
2022/11/24 14:38:35;;;;;;;20.02;11.07;;;;;;;;;;5061520;28;20053;-78
2022/11/24 14:41:25;;;;;;;22.85;10.57;;;;;;;;;;5060989;28;20475;-78
2022/11/24 14:44:26;;;;;;;10.90;5.85;;;;;;;;;;5054064;28;20427;-77
2022/11/24 14:47:20;;;;;;;21.02;10.75;;;;;;;;;;5055711;28;20041;-77
2022/11/24 14:50:12;;;;;;;9.10;4.43;;;;;;;;;;5060974;28;20411;-79
2022/11/24 14:52:58;;;;;;;28.45;13.02;;;;;;;;;;5060815;28;20045;-77
2022/11/24 14:55:43;;;;;;;16.15;7.90;;;;;;;;;;5063803;28;20045;-77
2022/11/24 14:58:33;;;;;;;25.55;10.57;;;;;;;;;;5061389;28;20502;-78
2022/11/24 15:01:38;;;;;;;21.92;11.68;;;;;;;;;;5058549;28;20049;-77
2022/11/24 15:04:26;;;;;;;26.50;14.20;;;;;;;;;;5059864;28;20396;-77
2022/11/24 15:07:27;;;;;;;39.92;21.00;;;;;;;;;;5044372;28;20058;-79
2022/11/24 15:10:26;;;;;;;17.48;9.60;;;;;;;;;;5040756;28;20045;-79
2022/11/24 15:13:36;;;;;;;52.22;26.90;;;;;;;;;;5053447;28;20048;-76
2022/11/24 15:16:24;;;;;;;51.03;22.42;;;;;;;;;;5049690;28;20480;-80
2022/11/24 15:19:15;;;;;;;42.05;20.08;;;;;;;;;;5043574;28;20045;-81
2022/11/24 15:22:31;;;;;;;42.33;19.27;;;;;;;;;;5033660;28;20041;-79
2022/11/24 15:25:25;;;;;;;36.78;14.98;;;;;;;;;;5054605;28;20049;-78
2022/11/24 15:28:12;;;;;;;21.52;12.43;;;;;;;;;;5054343;28;20045;-78
2022/11/24 15:31:00;;;;;;;17.92;9.65;;;;;;;;;;5063000;28;20052;-79
2022/11/24 15:33:45;;;;;;;32.05;12.57;;;;;;;;;;5052725;28;20475;-80
2022/11/24 15:36:31;;;;;;;28.05;11.85;;;;;;;;;;5060248;28;20041;-79
2022/11/24 15:39:17;;;;;;;17.45;10.52;;;;;;;;;;5059438;28;20057;-78
2022/11/24 15:42:02;;;;;;;22.60;12.43;;;;;;;;;;5053555;28;20033;-79
2022/11/24 15:44:48;;;;;;;26.85;12.27;;;;;;;;;;5056588;28;20399;-77
2022/11/24 15:47:33;;;;;;;32.47;11.05;;;;;;;;;;5060731;28;20044;-79
2022/11/24 15:50:20;;;;;;;11.55;7.38;;;;;;;;;;5060420;28;20053;-79
2022/11/24 15:53:15;;;;;;;21.55;9.90;;;;;;;;;;5053230;28;20049;-78
2022/11/24 15:56:04;;;;;;;22.20;12.13;;;;;;;;;;5043464;28;20045;-78
2022/11/24 15:58:49;;;;;;;28.95;12.45;;;;;;;;;;5052785;28;20471;-77
2022/11/24 16:01:35;;;;;;;6.93;3.92;;;;;;;;;;5046469;28;20053;-78
2022/11/24 16:04:19;;;;;;;8.70;4.88;;;;;;;;;;5057970;28;20049;-80
2022/11/24 16:07:05;;;;;;;8.43;4.13;;;;;;;;;;5047069;28;20391;-79
2022/11/24 16:09:51;;;;;;;12.40;7.32;;;;;;;;;;5053980;28;20041;-78
2022/11/24 16:12:37;;;;;;;11.05;7.05;;;;;;;;;;5059461;28;20063;-77
2022/11/24 16:15:22;;;;;;;19.08;10.88;;;;;;;;;;5054610;28;20041;-79
2022/11/24 16:18:08;;;;;;;10.98;5.72;;;;;;;;;;5046249;28;20060;-77
2022/11/24 16:20:53;;;;;;;30.80;10.95;;;;;;;;;;5054839;28;20407;-79
2022/11/24 16:23:39;;;;;;;19.75;8.35;;;;;;;;;;5059882;28;20049;-78
2022/11/24 16:26:29;;;;;;;15.57;8.95;;;;;;;;;;5052698;28;20451;-77
2022/11/24 16:29:15;;;;;;;13.27;7.88;;;;;;;;;;5056342;28;20434;-80
2022/11/24 16:32:01;;;;;;;14.15;7.40;;;;;;;;;;5052162;28;20057;-79
2022/11/24 16:34:46;;;;;;;12.82;6.85;;;;;;;;;;5050951;28;20401;-77
2022/11/24 16:37:32;;;;;;;6.53;3.75;;;;;;;;;;5056363;28;20053;-78
2022/11/24 16:40:17;;;;;;;9.20;4.88;;;;;;;;;;5046706;28;20037;-78
2022/11/24 16:43:03;;;;;;;22.00;8.65;;;;;;;;;;5056704;28;20053;-78
2022/11/24 16:46:05;;;;;;;6.03;3.50;;;;;;;;;;5057479;28;20037;-77
2022/11/24 16:48:52;;;;;;;8.50;3.58;;;;;;;;;;5041226;28;20041;-78
2022/11/24 16:51:38;;;;;;;9.88;4.40;;;;;;;;;;5050657;28;20395;-78